sensor_id;sensor_type;location;lat;lon;timestamp;P1;durP1;ratioP1;P2;durP2;ratioP2
79480;SDS011;68944;48.262;14.208;2024-02-16T00:00:18;11.40;;;5.00;;
79480;SDS011;68944;48.262;14.208;2024-02-16T00:05:12;13.10;;;5.25;;
79480;SDS011;68944;48.262;14.208;2024-02-16T00:07:38;9.80;;;4.88;;
79480;SDS011;68944;48.262;14.208;2024-02-16T00:10:05;10.98;;;5.07;;
79480;SDS011;68944;48.262;14.208;2024-02-16T00:12:32;11.32;;;4.97;;
79480;SDS011;68944;48.262;14.208;2024-02-16T00:15:00;10.90;;;5.45;;
79480;SDS011;68944;48.262;14.208;2024-02-16T00:17:26;10.65;;;4.90;;
79480;SDS011;68944;48.262;14.208;2024-02-16T00:19:55;11.27;;;5.50;;
79480;SDS011;68944;48.262;14.208;2024-02-16T00:22:22;16.48;;;6.35;;
79480;SDS011;68944;48.262;14.208;2024-02-16T00:24:48;12.18;;;5.75;;
79480;SDS011;68944;48.262;14.208;2024-02-16T00:27:14;10.85;;;5.68;;
79480;SDS011;68944;48.262;14.208;2024-02-16T00:29:40;12.85;;;5.60;;
79480;SDS011;68944;48.262;14.208;2024-02-16T00:32:07;12.65;;;5.95;;
79480;SDS011;68944;48.262;14.208;2024-02-16T00:34:33;13.98;;;5.65;;
79480;SDS011;68944;48.262;14.208;2024-02-16T00:37:01;12.73;;;5.65;;
79480;SDS011;68944;48.262;14.208;2024-02-16T00:39:30;13.52;;;6.80;;
79480;SDS011;68944;48.262;14.208;2024-02-16T00:41:55;14.80;;;6.63;;
79480;SDS011;68944;48.262;14.208;2024-02-16T00:44:21;12.27;;;6.18;;
79480;SDS011;68944;48.262;14.208;2024-02-16T00:46:47;12.82;;;7.22;;
79480;SDS011;68944;48.262;14.208;2024-02-16T00:49:12;15.15;;;7.95;;
79480;SDS011;68944;48.262;14.208;2024-02-16T00:51:38;14.43;;;7.22;;
79480;SDS011;68944;48.262;14.208;2024-02-16T00:54:04;13.05;;;6.72;;
79480;SDS011;68944;48.262;14.208;2024-02-16T00:56:30;14.07;;;6.75;;
79480;SDS011;68944;48.262;14.208;2024-02-16T00:58:57;12.75;;;6.75;;
79480;SDS011;68944;48.262;14.208;2024-02-16T01:01:22;13.50;;;6.85;;
79480;SDS011;68944;48.262;14.208;2024-02-16T01:03:49;13.43;;;7.10;;
79480;SDS011;68944;48.262;14.208;2024-02-16T01:06:17;14.63;;;8.88;;
79480;SDS011;68944;48.262;14.208;2024-02-16T01:08:42;15.98;;;8.90;;
79480;SDS011;68944;48.262;14.208;2024-02-16T01:11:08;19.83;;;9.02;;
79480;SDS011;68944;48.262;14.208;2024-02-16T01:13:34;14.90;;;7.32;;
79480;SDS011;68944;48.262;14.208;2024-02-16T01:15:59;15.20;;;8.85;;
79480;SDS011;68944;48.262;14.208;2024-02-16T01:18:25;27.33;;;13.57;;
79480;SDS011;68944;48.262;14.208;2024-02-16T01:20:53;17.88;;;8.75;;
79480;SDS011;68944;48.262;14.208;2024-02-16T01:23:19;14.10;;;7.63;;
79480;SDS011;68944;48.262;14.208;2024-02-16T01:25:45;11.32;;;6.43;;
79480;SDS011;68944;48.262;14.208;2024-02-16T01:28:11;14.55;;;7.45;;
79480;SDS011;68944;48.262;14.208;2024-02-16T01:30:41;13.65;;;7.25;;
79480;SDS011;68944;48.262;14.208;2024-02-16T01:33:07;12.95;;;7.00;;
79480;SDS011;68944;48.262;14.208;2024-02-16T01:35:32;14.20;;;7.10;;
79480;SDS011;68944;48.262;14.208;2024-02-16T01:37:58;13.35;;;7.30;;
79480;SDS011;68944;48.262;14.208;2024-02-16T01:40:24;13.68;;;7.15;;
79480;SDS011;68944;48.262;14.208;2024-02-16T01:42:51;13.20;;;6.80;;
79480;SDS011;68944;48.262;14.208;2024-02-16T01:45:20;16.20;;;7.82;;
79480;SDS011;68944;48.262;14.208;2024-02-16T01:47:47;16.90;;;7.90;;
79480;SDS011;68944;48.262;14.208;2024-02-16T01:50:14;14.60;;;7.32;;
79480;SDS011;68944;48.262;14.208;2024-02-16T01:52:44;13.55;;;7.28;;
79480;SDS011;68944;48.262;14.208;2024-02-16T01:55:12;15.07;;;6.50;;
79480;SDS011;68944;48.262;14.208;2024-02-16T01:57:44;17.17;;;7.80;;
79480;SDS011;68944;48.262;14.208;2024-02-16T02:00:12;14.70;;;6.95;;
79480;SDS011;68944;48.262;14.208;2024-02-16T02:02:40;14.65;;;6.65;;
79480;SDS011;68944;48.262;14.208;2024-02-16T02:07:34;12.63;;;6.93;;
79480;SDS011;68944;48.262;14.208;2024-02-16T02:10:00;16.75;;;7.65;;
79480;SDS011;68944;48.262;14.208;2024-02-16T02:12:26;13.02;;;7.22;;
79480;SDS011;68944;48.262;14.208;2024-02-16T02:14:52;14.95;;;7.57;;
79480;SDS011;68944;48.262;14.208;2024-02-16T02:17:18;15.40;;;7.88;;
79480;SDS011;68944;48.262;14.208;2024-02-16T02:19:47;16.95;;;8.38;;
79480;SDS011;68944;48.262;14.208;2024-02-16T02:24:42;17.10;;;8.60;;
79480;SDS011;68944;48.262;14.208;2024-02-16T02:27:09;15.27;;;8.05;;
79480;SDS011;68944;48.262;14.208;2024-02-16T02:29:35;16.13;;;9.27;;
79480;SDS011;68944;48.262;14.208;2024-02-16T02:32:01;16.17;;;9.07;;
79480;SDS011;68944;48.262;14.208;2024-02-16T02:34:26;13.98;;;8.30;;
79480;SDS011;68944;48.262;14.208;2024-02-16T02:36:52;15.50;;;8.25;;
79480;SDS011;68944;48.262;14.208;2024-02-16T02:39:18;17.00;;;9.20;;
79480;SDS011;68944;48.262;14.208;2024-02-16T02:41:44;15.88;;;8.40;;
79480;SDS011;68944;48.262;14.208;2024-02-16T02:44:09;15.40;;;8.30;;
79480;SDS011;68944;48.262;14.208;2024-02-16T02:46:36;18.48;;;8.55;;
79480;SDS011;68944;48.262;14.208;2024-02-16T02:49:02;18.25;;;9.13;;
79480;SDS011;68944;48.262;14.208;2024-02-16T02:51:29;15.63;;;8.57;;
79480;SDS011;68944;48.262;14.208;2024-02-16T02:53:54;19.02;;;9.80;;
79480;SDS011;68944;48.262;14.208;2024-02-16T02:56:20;16.73;;;10.07;;
79480;SDS011;68944;48.262;14.208;2024-02-16T02:58:45;21.85;;;10.80;;
79480;SDS011;68944;48.262;14.208;2024-02-16T03:01:12;18.63;;;9.82;;
79480;SDS011;68944;48.262;14.208;2024-02-16T03:03:39;16.55;;;9.77;;
79480;SDS011;68944;48.262;14.208;2024-02-16T03:06:05;22.63;;;10.43;;
79480;SDS011;68944;48.262;14.208;2024-02-16T03:08:32;20.33;;;10.77;;
79480;SDS011;68944;48.262;14.208;2024-02-16T03:10:58;21.25;;;11.30;;
79480;SDS011;68944;48.262;14.208;2024-02-16T03:13:27;20.58;;;11.02;;
79480;SDS011;68944;48.262;14.208;2024-02-16T03:15:53;21.90;;;11.27;;
79480;SDS011;68944;48.262;14.208;2024-02-16T03:18:19;21.60;;;11.20;;
79480;SDS011;68944;48.262;14.208;2024-02-16T03:20:47;22.35;;;11.30;;
79480;SDS011;68944;48.262;14.208;2024-02-16T03:23:16;19.10;;;10.23;;
79480;SDS011;68944;48.262;14.208;2024-02-16T03:25:41;23.83;;;11.52;;
79480;SDS011;68944;48.262;14.208;2024-02-16T03:28:13;23.48;;;12.55;;
79480;SDS011;68944;48.262;14.208;2024-02-16T03:30:40;19.52;;;11.70;;
79480;SDS011;68944;48.262;14.208;2024-02-16T03:33:05;21.10;;;10.93;;
79480;SDS011;68944;48.262;14.208;2024-02-16T03:35:31;20.05;;;11.40;;
79480;SDS011;68944;48.262;14.208;2024-02-16T03:37:57;24.35;;;12.00;;
79480;SDS011;68944;48.262;14.208;2024-02-16T03:40:23;22.20;;;12.13;;
79480;SDS011;68944;48.262;14.208;2024-02-16T03:42:50;24.55;;;14.02;;
79480;SDS011;68944;48.262;14.208;2024-02-16T03:45:19;23.08;;;13.23;;
79480;SDS011;68944;48.262;14.208;2024-02-16T03:47:45;28.17;;;13.82;;
79480;SDS011;68944;48.262;14.208;2024-02-16T03:50:13;25.70;;;13.05;;
79480;SDS011;68944;48.262;14.208;2024-02-16T03:52:39;23.17;;;12.15;;
79480;SDS011;68944;48.262;14.208;2024-02-16T03:55:05;22.35;;;12.18;;
79480;SDS011;68944;48.262;14.208;2024-02-16T03:57:32;21.83;;;12.77;;
79480;SDS011;68944;48.262;14.208;2024-02-16T03:59:57;25.63;;;13.23;;
79480;SDS011;68944;48.262;14.208;2024-02-16T04:02:23;23.20;;;13.18;;
79480;SDS011;68944;48.262;14.208;2024-02-16T04:04:48;25.48;;;12.45;;
79480;SDS011;68944;48.262;14.208;2024-02-16T04:07:14;29.58;;;13.60;;
79480;SDS011;68944;48.262;14.208;2024-02-16T04:09:39;21.70;;;12.77;;
79480;SDS011;68944;48.262;14.208;2024-02-16T04:12:05;28.02;;;13.82;;
79480;SDS011;68944;48.262;14.208;2024-02-16T04:14:31;24.27;;;12.60;;
79480;SDS011;68944;48.262;14.208;2024-02-16T04:16:57;22.50;;;11.63;;
79480;SDS011;68944;48.262;14.208;2024-02-16T04:19:24;21.08;;;11.43;;
79480;SDS011;68944;48.262;14.208;2024-02-16T04:21:50;22.83;;;12.93;;
79480;SDS011;68944;48.262;14.208;2024-02-16T04:24:16;21.35;;;11.65;;
79480;SDS011;68944;48.262;14.208;2024-02-16T04:26:42;25.20;;;13.55;;
79480;SDS011;68944;48.262;14.208;2024-02-16T04:29:07;26.52;;;13.40;;
79480;SDS011;68944;48.262;14.208;2024-02-16T04:31:33;22.30;;;13.07;;
79480;SDS011;68944;48.262;14.208;2024-02-16T04:33:59;20.83;;;11.98;;
79480;SDS011;68944;48.262;14.208;2024-02-16T04:36:24;22.80;;;12.60;;
79480;SDS011;68944;48.262;14.208;2024-02-16T04:38:50;23.33;;;12.02;;
79480;SDS011;68944;48.262;14.208;2024-02-16T04:41:16;25.65;;;12.20;;
79480;SDS011;68944;48.262;14.208;2024-02-16T04:43:41;22.85;;;12.85;;
79480;SDS011;68944;48.262;14.208;2024-02-16T04:46:07;22.63;;;13.20;;
79480;SDS011;68944;48.262;14.208;2024-02-16T04:48:38;25.85;;;12.65;;
79480;SDS011;68944;48.262;14.208;2024-02-16T04:51:04;23.00;;;12.10;;
79480;SDS011;68944;48.262;14.208;2024-02-16T04:53:29;23.98;;;13.40;;
79480;SDS011;68944;48.262;14.208;2024-02-16T04:55:55;23.00;;;11.93;;
79480;SDS011;68944;48.262;14.208;2024-02-16T04:58:20;24.08;;;13.13;;
79480;SDS011;68944;48.262;14.208;2024-02-16T05:00:47;21.70;;;12.57;;
79480;SDS011;68944;48.262;14.208;2024-02-16T05:03:12;22.95;;;12.63;;
79480;SDS011;68944;48.262;14.208;2024-02-16T05:05:38;24.30;;;12.32;;
79480;SDS011;68944;48.262;14.208;2024-02-16T05:08:03;25.58;;;12.48;;
79480;SDS011;68944;48.262;14.208;2024-02-16T05:10:30;22.35;;;11.15;;
79480;SDS011;68944;48.262;14.208;2024-02-16T05:12:56;22.38;;;12.30;;
79480;SDS011;68944;48.262;14.208;2024-02-16T05:15:23;23.58;;;12.07;;
79480;SDS011;68944;48.262;14.208;2024-02-16T05:17:49;20.80;;;11.88;;
79480;SDS011;68944;48.262;14.208;2024-02-16T05:20:15;23.23;;;12.63;;
79480;SDS011;68944;48.262;14.208;2024-02-16T05:22:41;22.33;;;12.32;;
79480;SDS011;68944;48.262;14.208;2024-02-16T05:25:09;22.48;;;12.48;;
79480;SDS011;68944;48.262;14.208;2024-02-16T05:27:35;23.75;;;12.80;;
79480;SDS011;68944;48.262;14.208;2024-02-16T05:30:03;23.15;;;12.45;;
79480;SDS011;68944;48.262;14.208;2024-02-16T05:32:33;23.92;;;13.15;;
79480;SDS011;68944;48.262;14.208;2024-02-16T05:35:00;26.88;;;15.20;;
79480;SDS011;68944;48.262;14.208;2024-02-16T05:37:30;27.63;;;15.02;;
79480;SDS011;68944;48.262;14.208;2024-02-16T05:39:57;35.80;;;16.10;;
79480;SDS011;68944;48.262;14.208;2024-02-16T05:42:33;29.50;;;15.40;;
79480;SDS011;68944;48.262;14.208;2024-02-16T05:45:00;32.53;;;17.05;;
79480;SDS011;68944;48.262;14.208;2024-02-16T05:47:25;33.10;;;18.35;;
79480;SDS011;68944;48.262;14.208;2024-02-16T05:49:52;33.65;;;16.67;;
79480;SDS011;68944;48.262;14.208;2024-02-16T05:52:17;31.23;;;16.63;;
79480;SDS011;68944;48.262;14.208;2024-02-16T05:54:46;30.52;;;16.73;;
79480;SDS011;68944;48.262;14.208;2024-02-16T05:57:15;30.38;;;16.65;;
79480;SDS011;68944;48.262;14.208;2024-02-16T05:59:42;30.50;;;16.45;;
79480;SDS011;68944;48.262;14.208;2024-02-16T06:02:08;30.67;;;15.60;;
79480;SDS011;68944;48.262;14.208;2024-02-16T06:04:35;30.95;;;16.83;;
79480;SDS011;68944;48.262;14.208;2024-02-16T06:07:01;32.97;;;18.05;;
79480;SDS011;68944;48.262;14.208;2024-02-16T06:09:27;33.10;;;18.10;;
79480;SDS011;68944;48.262;14.208;2024-02-16T06:12:00;33.70;;;16.98;;
79480;SDS011;68944;48.262;14.208;2024-02-16T06:14:28;33.65;;;17.10;;
79480;SDS011;68944;48.262;14.208;2024-02-16T06:16:55;29.45;;;14.57;;
79480;SDS011;68944;48.262;14.208;2024-02-16T06:19:21;28.55;;;14.98;;
79480;SDS011;68944;48.262;14.208;2024-02-16T06:21:46;25.83;;;13.57;;
79480;SDS011;68944;48.262;14.208;2024-02-16T06:24:12;28.00;;;15.18;;
79480;SDS011;68944;48.262;14.208;2024-02-16T06:26:37;30.05;;;15.38;;
79480;SDS011;68944;48.262;14.208;2024-02-16T06:29:03;34.00;;;17.65;;
79480;SDS011;68944;48.262;14.208;2024-02-16T06:31:28;31.13;;;15.48;;
79480;SDS011;68944;48.262;14.208;2024-02-16T06:33:54;31.40;;;16.65;;
79480;SDS011;68944;48.262;14.208;2024-02-16T06:36:19;29.52;;;14.68;;
79480;SDS011;68944;48.262;14.208;2024-02-16T06:38:45;34.47;;;18.60;;
79480;SDS011;68944;48.262;14.208;2024-02-16T06:41:12;31.55;;;16.65;;
79480;SDS011;68944;48.262;14.208;2024-02-16T06:43:38;28.83;;;15.25;;
79480;SDS011;68944;48.262;14.208;2024-02-16T06:46:04;29.35;;;16.17;;
79480;SDS011;68944;48.262;14.208;2024-02-16T06:48:30;30.17;;;15.73;;
79480;SDS011;68944;48.262;14.208;2024-02-16T06:50:55;27.00;;;15.15;;
79480;SDS011;68944;48.262;14.208;2024-02-16T06:53:21;33.95;;;17.17;;
79480;SDS011;68944;48.262;14.208;2024-02-16T06:55:46;32.63;;;16.52;;
79480;SDS011;68944;48.262;14.208;2024-02-16T06:58:12;26.65;;;15.63;;
79480;SDS011;68944;48.262;14.208;2024-02-16T07:00:38;34.13;;;17.85;;
79480;SDS011;68944;48.262;14.208;2024-02-16T07:05:32;26.75;;;15.23;;
79480;SDS011;68944;48.262;14.208;2024-02-16T07:07:58;30.27;;;16.58;;
79480;SDS011;68944;48.262;14.208;2024-02-16T07:10:24;28.98;;;15.25;;
79480;SDS011;68944;48.262;14.208;2024-02-16T07:12:49;29.52;;;15.60;;
79480;SDS011;68944;48.262;14.208;2024-02-16T07:15:15;31.20;;;17.45;;
79480;SDS011;68944;48.262;14.208;2024-02-16T07:17:40;27.23;;;15.45;;
79480;SDS011;68944;48.262;14.208;2024-02-16T07:20:06;30.02;;;16.70;;
79480;SDS011;68944;48.262;14.208;2024-02-16T07:22:32;30.10;;;15.75;;
79480;SDS011;68944;48.262;14.208;2024-02-16T07:24:59;27.10;;;15.40;;
79480;SDS011;68944;48.262;14.208;2024-02-16T07:27:28;26.75;;;14.82;;
79480;SDS011;68944;48.262;14.208;2024-02-16T07:29:54;30.73;;;14.27;;
79480;SDS011;68944;48.262;14.208;2024-02-16T07:32:20;31.05;;;16.17;;
79480;SDS011;68944;48.262;14.208;2024-02-16T07:34:45;29.85;;;16.52;;
79480;SDS011;68944;48.262;14.208;2024-02-16T07:37:13;32.30;;;16.83;;
79480;SDS011;68944;48.262;14.208;2024-02-16T07:39:38;27.67;;;14.98;;
79480;SDS011;68944;48.262;14.208;2024-02-16T07:42:06;27.92;;;15.23;;
79480;SDS011;68944;48.262;14.208;2024-02-16T07:44:34;30.48;;;15.23;;
79480;SDS011;68944;48.262;14.208;2024-02-16T07:47:01;31.98;;;16.15;;
79480;SDS011;68944;48.262;14.208;2024-02-16T07:49:27;29.15;;;15.50;;
79480;SDS011;68944;48.262;14.208;2024-02-16T07:51:52;30.30;;;16.02;;
79480;SDS011;68944;48.262;14.208;2024-02-16T07:54:18;30.33;;;15.02;;
79480;SDS011;68944;48.262;14.208;2024-02-16T07:56:43;27.02;;;14.43;;
79480;SDS011;68944;48.262;14.208;2024-02-16T07:59:09;28.92;;;15.05;;
79480;SDS011;68944;48.262;14.208;2024-02-16T08:01:34;28.67;;;16.08;;
79480;SDS011;68944;48.262;14.208;2024-02-16T08:04:00;35.13;;;18.73;;
79480;SDS011;68944;48.262;14.208;2024-02-16T08:06:26;34.95;;;18.55;;
79480;SDS011;68944;48.262;14.208;2024-02-16T08:08:52;34.05;;;16.13;;
79480;SDS011;68944;48.262;14.208;2024-02-16T08:11:17;29.70;;;15.18;;
79480;SDS011;68944;48.262;14.208;2024-02-16T08:13:43;27.98;;;16.40;;
79480;SDS011;68944;48.262;14.208;2024-02-16T08:16:09;29.92;;;15.13;;
79480;SDS011;68944;48.262;14.208;2024-02-16T08:18:35;31.15;;;16.30;;
79480;SDS011;68944;48.262;14.208;2024-02-16T08:21:01;31.67;;;16.15;;
79480;SDS011;68944;48.262;14.208;2024-02-16T08:23:26;32.22;;;16.95;;
79480;SDS011;68944;48.262;14.208;2024-02-16T08:25:52;43.15;;;21.52;;
79480;SDS011;68944;48.262;14.208;2024-02-16T08:28:17;38.17;;;18.88;;
79480;SDS011;68944;48.262;14.208;2024-02-16T08:30:43;36.58;;;18.38;;
79480;SDS011;68944;48.262;14.208;2024-02-16T08:33:12;38.63;;;16.83;;
79480;SDS011;68944;48.262;14.208;2024-02-16T08:35:40;31.20;;;15.30;;
79480;SDS011;68944;48.262;14.208;2024-02-16T08:38:06;33.13;;;16.38;;
79480;SDS011;68944;48.262;14.208;2024-02-16T08:40:39;45.75;;;18.58;;
79480;SDS011;68944;48.262;14.208;2024-02-16T08:43:05;45.33;;;21.02;;
79480;SDS011;68944;48.262;14.208;2024-02-16T08:45:34;38.67;;;18.15;;
79480;SDS011;68944;48.262;14.208;2024-02-16T08:47:59;35.67;;;18.00;;
79480;SDS011;68944;48.262;14.208;2024-02-16T08:50:27;32.25;;;15.52;;
79480;SDS011;68944;48.262;14.208;2024-02-16T08:52:52;33.33;;;17.13;;
79480;SDS011;68944;48.262;14.208;2024-02-16T08:55:20;31.95;;;16.52;;
79480;SDS011;68944;48.262;14.208;2024-02-16T08:57:46;35.00;;;18.20;;
79480;SDS011;68944;48.262;14.208;2024-02-16T09:00:11;34.08;;;16.88;;
79480;SDS011;68944;48.262;14.208;2024-02-16T09:02:38;36.47;;;18.05;;
79480;SDS011;68944;48.262;14.208;2024-02-16T09:05:04;46.20;;;22.02;;
79480;SDS011;68944;48.262;14.208;2024-02-16T09:07:30;31.60;;;17.42;;
79480;SDS011;68944;48.262;14.208;2024-02-16T09:09:55;29.80;;;14.85;;
79480;SDS011;68944;48.262;14.208;2024-02-16T09:12:22;36.70;;;18.92;;
79480;SDS011;68944;48.262;14.208;2024-02-16T09:14:48;40.97;;;21.17;;
79480;SDS011;68944;48.262;14.208;2024-02-16T09:17:14;34.38;;;17.02;;
79480;SDS011;68944;48.262;14.208;2024-02-16T09:19:39;36.13;;;17.90;;
79480;SDS011;68944;48.262;14.208;2024-02-16T09:22:05;33.95;;;17.42;;
79480;SDS011;68944;48.262;14.208;2024-02-16T09:24:31;35.25;;;16.75;;
79480;SDS011;68944;48.262;14.208;2024-02-16T09:26:58;31.38;;;16.38;;
79480;SDS011;68944;48.262;14.208;2024-02-16T09:29:28;34.42;;;17.17;;
79480;SDS011;68944;48.262;14.208;2024-02-16T09:31:54;35.22;;;16.27;;
79480;SDS011;68944;48.262;14.208;2024-02-16T09:34:19;37.60;;;16.65;;
79480;SDS011;68944;48.262;14.208;2024-02-16T09:36:45;34.88;;;18.75;;
79480;SDS011;68944;48.262;14.208;2024-02-16T09:39:11;37.05;;;18.13;;
79480;SDS011;68944;48.262;14.208;2024-02-16T09:41:36;33.28;;;17.05;;
79480;SDS011;68944;48.262;14.208;2024-02-16T09:44:06;34.95;;;17.42;;
79480;SDS011;68944;48.262;14.208;2024-02-16T09:46:32;32.70;;;17.17;;
79480;SDS011;68944;48.262;14.208;2024-02-16T09:49:02;34.47;;;17.00;;
79480;SDS011;68944;48.262;14.208;2024-02-16T09:51:28;30.85;;;15.85;;
79480;SDS011;68944;48.262;14.208;2024-02-16T09:53:54;28.67;;;15.45;;
79480;SDS011;68944;48.262;14.208;2024-02-16T09:56:23;30.95;;;16.80;;
79480;SDS011;68944;48.262;14.208;2024-02-16T09:58:53;31.55;;;15.88;;
79480;SDS011;68944;48.262;14.208;2024-02-16T10:01:20;29.73;;;15.15;;
79480;SDS011;68944;48.262;14.208;2024-02-16T10:03:47;29.25;;;16.17;;
79480;SDS011;68944;48.262;14.208;2024-02-16T10:06:15;34.40;;;16.10;;
79480;SDS011;68944;48.262;14.208;2024-02-16T10:08:55;29.80;;;15.13;;
79480;SDS011;68944;48.262;14.208;2024-02-16T10:11:22;29.65;;;16.10;;
79480;SDS011;68944;48.262;14.208;2024-02-16T10:13:55;25.30;;;14.15;;
79480;SDS011;68944;48.262;14.208;2024-02-16T10:16:25;29.90;;;14.98;;
79480;SDS011;68944;48.262;14.208;2024-02-16T10:18:54;30.48;;;15.85;;
79480;SDS011;68944;48.262;14.208;2024-02-16T10:21:26;41.38;;;18.98;;
79480;SDS011;68944;48.262;14.208;2024-02-16T10:24:05;29.98;;;15.73;;
79480;SDS011;68944;48.262;14.208;2024-02-16T10:26:36;26.65;;;15.10;;
79480;SDS011;68944;48.262;14.208;2024-02-16T10:29:09;29.73;;;14.27;;
79480;SDS011;68944;48.262;14.208;2024-02-16T10:31:36;25.35;;;13.82;;
79480;SDS011;68944;48.262;14.208;2024-02-16T10:34:02;25.17;;;13.77;;
79480;SDS011;68944;48.262;14.208;2024-02-16T10:36:37;27.05;;;14.35;;
79480;SDS011;68944;48.262;14.208;2024-02-16T10:39:05;26.45;;;14.25;;
79480;SDS011;68944;48.262;14.208;2024-02-16T10:41:41;25.75;;;14.27;;
79480;SDS011;68944;48.262;14.208;2024-02-16T10:44:07;24.58;;;14.93;;
79480;SDS011;68944;48.262;14.208;2024-02-16T10:46:33;26.02;;;13.88;;
79480;SDS011;68944;48.262;14.208;2024-02-16T10:48:59;23.83;;;13.02;;
79480;SDS011;68944;48.262;14.208;2024-02-16T10:51:28;21.50;;;12.88;;
79480;SDS011;68944;48.262;14.208;2024-02-16T10:53:56;24.92;;;14.90;;
79480;SDS011;68944;48.262;14.208;2024-02-16T10:56:31;23.73;;;13.80;;
79480;SDS011;68944;48.262;14.208;2024-02-16T10:59:04;24.45;;;13.80;;
79480;SDS011;68944;48.262;14.208;2024-02-16T11:01:39;23.42;;;13.73;;
79480;SDS011;68944;48.262;14.208;2024-02-16T11:04:06;22.08;;;13.13;;
79480;SDS011;68944;48.262;14.208;2024-02-16T11:06:44;26.63;;;14.93;;
79480;SDS011;68944;48.262;14.208;2024-02-16T11:09:28;23.25;;;12.80;;
79480;SDS011;68944;48.262;14.208;2024-02-16T11:12:02;30.30;;;15.63;;
79480;SDS011;68944;48.262;14.208;2024-02-16T11:14:39;27.08;;;13.18;;
79480;SDS011;68944;48.262;14.208;2024-02-16T11:19:43;26.45;;;13.65;;
79480;SDS011;68944;48.262;14.208;2024-02-16T11:22:10;28.02;;;15.85;;
79480;SDS011;68944;48.262;14.208;2024-02-16T11:24:38;25.45;;;15.00;;
79480;SDS011;68944;48.262;14.208;2024-02-16T11:27:09;24.88;;;13.60;;
79480;SDS011;68944;48.262;14.208;2024-02-16T11:29:35;25.08;;;13.90;;
79480;SDS011;68944;48.262;14.208;2024-02-16T11:32:03;23.10;;;14.40;;
79480;SDS011;68944;48.262;14.208;2024-02-16T11:34:30;21.92;;;13.25;;
79480;SDS011;68944;48.262;14.208;2024-02-16T11:36:57;24.33;;;14.55;;
79480;SDS011;68944;48.262;14.208;2024-02-16T11:39:24;20.27;;;12.88;;
79480;SDS011;68944;48.262;14.208;2024-02-16T11:42:00;21.27;;;12.63;;
79480;SDS011;68944;48.262;14.208;2024-02-16T11:44:28;20.00;;;12.45;;
79480;SDS011;68944;48.262;14.208;2024-02-16T11:46:54;33.55;;;16.90;;
79480;SDS011;68944;48.262;14.208;2024-02-16T11:49:20;31.70;;;16.33;;
79480;SDS011;68944;48.262;14.208;2024-02-16T11:51:47;31.45;;;15.57;;
79480;SDS011;68944;48.262;14.208;2024-02-16T11:54:13;32.55;;;16.33;;
79480;SDS011;68944;48.262;14.208;2024-02-16T11:56:43;29.02;;;16.25;;
79480;SDS011;68944;48.262;14.208;2024-02-16T11:59:13;30.27;;;14.77;;
79480;SDS011;68944;48.262;14.208;2024-02-16T12:01:53;36.55;;;16.38;;
79480;SDS011;68944;48.262;14.208;2024-02-16T12:04:26;39.92;;;17.17;;
79480;SDS011;68944;48.262;14.208;2024-02-16T12:07:00;31.50;;;16.45;;
79480;SDS011;68944;48.262;14.208;2024-02-16T12:09:27;35.55;;;17.15;;
79480;SDS011;68944;48.262;14.208;2024-02-16T12:11:53;29.35;;;15.65;;
79480;SDS011;68944;48.262;14.208;2024-02-16T12:14:23;39.70;;;17.95;;
79480;SDS011;68944;48.262;14.208;2024-02-16T12:16:56;39.65;;;16.88;;
79480;SDS011;68944;48.262;14.208;2024-02-16T12:19:23;30.90;;;15.55;;
79480;SDS011;68944;48.262;14.208;2024-02-16T12:21:49;35.40;;;16.00;;
79480;SDS011;68944;48.262;14.208;2024-02-16T12:24:16;30.80;;;16.40;;
79480;SDS011;68944;48.262;14.208;2024-02-16T12:26:43;32.15;;;15.85;;
79480;SDS011;68944;48.262;14.208;2024-02-16T12:29:08;30.38;;;15.98;;
79480;SDS011;68944;48.262;14.208;2024-02-16T12:31:38;30.27;;;15.75;;
79480;SDS011;68944;48.262;14.208;2024-02-16T12:34:07;29.85;;;16.00;;
79480;SDS011;68944;48.262;14.208;2024-02-16T12:36:33;32.05;;;16.08;;
79480;SDS011;68944;48.262;14.208;2024-02-16T12:39:02;31.27;;;14.55;;
79480;SDS011;68944;48.262;14.208;2024-02-16T12:41:37;27.70;;;14.77;;
79480;SDS011;68944;48.262;14.208;2024-02-16T12:44:04;31.42;;;15.00;;
79480;SDS011;68944;48.262;14.208;2024-02-16T12:46:31;37.70;;;15.30;;
79480;SDS011;68944;48.262;14.208;2024-02-16T12:48:57;34.90;;;14.80;;
79480;SDS011;68944;48.262;14.208;2024-02-16T12:51:22;26.83;;;13.80;;
79480;SDS011;68944;48.262;14.208;2024-02-16T12:53:48;27.95;;;15.65;;
79480;SDS011;68944;48.262;14.208;2024-02-16T12:56:15;27.80;;;14.93;;
79480;SDS011;68944;48.262;14.208;2024-02-16T12:58:40;27.88;;;14.70;;
79480;SDS011;68944;48.262;14.208;2024-02-16T13:01:06;27.50;;;14.93;;
79480;SDS011;68944;48.262;14.208;2024-02-16T13:03:35;26.35;;;14.63;;
79480;SDS011;68944;48.262;14.208;2024-02-16T13:06:01;24.85;;;14.48;;
79480;SDS011;68944;48.262;14.208;2024-02-16T13:08:28;25.83;;;14.07;;
79480;SDS011;68944;48.262;14.208;2024-02-16T13:10:54;26.83;;;14.70;;
79480;SDS011;68944;48.262;14.208;2024-02-16T13:13:20;26.75;;;15.57;;
79480;SDS011;68944;48.262;14.208;2024-02-16T13:15:46;28.63;;;16.10;;
79480;SDS011;68944;48.262;14.208;2024-02-16T13:18:12;24.83;;;13.80;;
79480;SDS011;68944;48.262;14.208;2024-02-16T13:20:38;25.80;;;14.13;;
79480;SDS011;68944;48.262;14.208;2024-02-16T13:23:04;22.95;;;13.13;;
79480;SDS011;68944;48.262;14.208;2024-02-16T13:25:30;25.95;;;14.43;;
79480;SDS011;68944;48.262;14.208;2024-02-16T13:27:55;23.23;;;13.25;;
79480;SDS011;68944;48.262;14.208;2024-02-16T13:30:21;27.95;;;14.15;;
79480;SDS011;68944;48.262;14.208;2024-02-16T13:32:47;24.38;;;12.98;;
79480;SDS011;68944;48.262;14.208;2024-02-16T13:35:12;23.10;;;14.02;;
79480;SDS011;68944;48.262;14.208;2024-02-16T13:40:06;22.55;;;12.55;;
79480;SDS011;68944;48.262;14.208;2024-02-16T13:42:35;21.20;;;12.70;;
79480;SDS011;68944;48.262;14.208;2024-02-16T13:45:02;22.08;;;13.77;;
79480;SDS011;68944;48.262;14.208;2024-02-16T13:47:27;23.35;;;13.23;;
79480;SDS011;68944;48.262;14.208;2024-02-16T13:49:53;23.52;;;13.43;;
79480;SDS011;68944;48.262;14.208;2024-02-16T13:52:19;21.55;;;11.75;;
79480;SDS011;68944;48.262;14.208;2024-02-16T13:54:45;28.65;;;12.50;;
79480;SDS011;68944;48.262;14.208;2024-02-16T13:57:11;23.33;;;12.57;;
79480;SDS011;68944;48.262;14.208;2024-02-16T13:59:37;23.60;;;13.23;;
79480;SDS011;68944;48.262;14.208;2024-02-16T14:02:02;23.50;;;12.32;;
79480;SDS011;68944;48.262;14.208;2024-02-16T14:04:28;25.40;;;10.82;;
79480;SDS011;68944;48.262;14.208;2024-02-16T14:06:54;17.95;;;11.82;;
79480;SDS011;68944;48.262;14.208;2024-02-16T14:09:20;20.35;;;11.40;;
79480;SDS011;68944;48.262;14.208;2024-02-16T14:11:45;20.70;;;12.40;;
79480;SDS011;68944;48.262;14.208;2024-02-16T14:14:12;18.95;;;10.75;;
79480;SDS011;68944;48.262;14.208;2024-02-16T14:16:37;21.40;;;12.40;;
79480;SDS011;68944;48.262;14.208;2024-02-16T14:19:03;18.60;;;11.55;;
79480;SDS011;68944;48.262;14.208;2024-02-16T14:21:29;18.02;;;10.05;;
79480;SDS011;68944;48.262;14.208;2024-02-16T14:23:54;18.02;;;10.70;;